EPIC Dartmouth - Results

Date Sunday, July 1, 2012 Location Dartmouth
	 
                   Subaru Epic Dartmouth(Iron_Distance)
  Dartmouth, Nova Scotia, July 1st, 2012 Weather: Sunny 25 to 30 Degrees
              Timing & Results by Atlantic Chip Event Timing
 
                          Iron Dartmouth Results
------------------------------------------------------------------------          3800 Meter                        180 Km                          42.2 Km
                                                                Div             ------SWIM------   ----T1-----  ------BIKE------   -----T2----  ------RUN--------
Place   bib  Time   Name                    City         Pr Co  Total   Div     Pl   Time   /100   Pl  Time     Pl Time    Km/Hr   Pl    Time    Pl  Time   /Km
------  --- ------- --------------          ------------ -- --  -----  ------   -----------------  -----------  ----------------   -----------  -----------------
    1    69 11:11:59 Shawn Lewis            Beaver Bank  NS CA   1/3    M3539    7 1:08:19  1:48    3    2:56    5 6:03:55 29.7      2    2:29    1 3:54:22  5:34 
    2    74 11:18:44 Mark Campbell          Halifax      NS CA   1/3    M4044    4 1:06:19  1:45    2    2:46    1 5:42:31 31.5      1    2:22    2 4:24:47  6:17 
    3    62 11:28:49 Chantal Beam           Quispamsis   NB CA   1/2    F3034    3 1:00:31  1:36    4    3:55    2 5:49:21 30.9      5    4:09    3 4:30:55  6:26 
    4    78 12:03:18 Kevin Tulloch          Kaimhill     AB UK   1/2    M4549    6 1:07:59  1:48    5    3:56    3 5:59:12 30.1      8    5:50    4 4:46:23  6:48 
    5    68 12:44:41 Stephen Bodor          Ottawa       ON CA   2/3    M3539   14 1:16:23  2:01   17    7:25    8 6:15:44 28.7     11    6:54    7 4:58:17  7:05 
    6    82 12:45:26 Ian White              Yarmouth     NO CA   1/2    M5054   12 1:15:03  1:59   14    6:33    4 6:02:52 29.8     16    9:40    9 5:11:21  7:23 
    7    66 13:25:00 Shayne Brennan         Baileyville  ME US   1/1    M3034   18 1:33:33  2:28   12    6:15   10 6:40:21 27.0      7    5:50    8 4:59:03  7:06 
    8    63 13:26:59 Lisa Kek               Saint John   NB CA   2/2    F3034   11 1:13:22  1:56    9    5:05   16 7:03:33 25.5     12    6:57    6 4:58:04  7:04 
    9    85 13:33:39 John Bower             Yarmouth     NS CA   2/2    M5054   13 1:15:50  2:00   15    6:49    9 6:17:35 28.6     17   10:10   14 5:43:17  8:09 
   10    72 13:35:51 Chris Waterman         Caledonia    NS CA   2/3    M4044   16 1:27:21  2:18   11    6:11   11 6:43:49 26.7     10    6:50   10 5:11:41  7:24 
   11    75 13:36:54 Doreen Clayton         Lawrencevill GA US   1/2    F4549   15 1:19:19  2:06    6    4:15   18 7:11:37 25.0      9    6:10    5 4:55:34  7:01 
   12    73 13:49:02 Mike Caldwell          Low          QC CA   3/3    M4044    9 1:12:00  1:54    8    5:01   12 6:44:07 26.7      6    5:09   13 5:42:47  8:08 
   13    89 13:49:43 John Purdy             Hammonds Pla NS CA   1/1    M6064    5 1:06:22  1:45    7    4:33    6 6:06:41 29.5      4    4:02   18 6:28:07  9:12 
   14    87 13:51:41 Ray Williams           Dartmouth    NS CA   1/1    M5559    8 1:08:56  1:49   10    5:12   14 6:56:06 26.0     14    8:11   11 5:33:19  7:54 
   15    67 13:55:31 Peter Hill             Bundang-Gu   SE KP   3/3    M3539    2   59:06  1:34    1    2:37    7 6:12:40 29.0      3    2:49   19 6:38:20  9:27 
   16    77 14:02:03 Joseph Shipley         Windsor Junc NS CA   2/2    M4549   10 1:13:20  1:56   13    6:18   13 6:47:05 26.5     18   11:37   15 5:43:45  8:09 
   17    80 14:07:14 Bobby Lou Reardon      Yarmouth     NS CA   2/2    F4549    1   56:49  1:30   16    7:07   19 7:20:29 24.5     15    8:40   12 5:34:11  7:56 
   18    83 14:47:54 Rina Martin            Bathurst     NB CA   1/1    F5054   19 1:33:45  2:29   18    8:46   15 6:57:04 25.9     19   14:56   16 5:53:25  8:23 
   19    61 15:14:38 Jeremy Davidson        Shearwater   N. CA   1/1    M2529   17 1:33:10  2:28   19    9:27   17 7:10:44 25.1     13    7:08   17 6:14:10  8:52 

                   Subaru Epic Dartmouth(Epic_Distance)
  Dartmouth, Nova Scotia, July 1st, 2012 Weather: Sunny 25 to 30 Degrees
              Timing & Results by Atlantic Chip Event Timing
 
                          Epic Dartmouth Results
------------------------------------------------------------------------          3800 Meter                        180 Km                          21.1 Km
                                                                Div            ------SWIM------   ----T1----   ------BIKE-------  -----T2----  ------RUN--------
Place   bib  Time   Name                    City        Pr Co   Total  Div     Pl   Time   /100   Pl  Time     Pl Time     Km/Hr  Pl    Time   Pl   Time   /Km
------  --- ------- --------------         ------------ -- --  -----  ------   -----------------  -----------  -----------------  -----------  -----------------
    1    56 8:44:47 Pierre Laforest        Dieppe       NB CA   1/2    M5054    7 1:07:17  1:47    1    2:47    1 5:29:42 32.8      1    2:02    2 2:03:01  5:50 
    2    46 9:07:19 Jamie Nickerson        Charlottetow PE CA   1/2    M4044    5 1:02:15  1:39   10    4:46    2 5:41:16 31.6     10    5:50    5 2:13:13  6:19 
    3    54 9:25:09 Edie Fisher            Kenora       ON CA   1/1    F5559    4 1:00:48  1:36    3    3:44    4 5:51:47 30.7      6    4:48   11 2:24:04  6:50 
    4    49 9:25:09 Paul Shaw              Cyclesmith   NS CA   1/2    M4549   13 1:13:50  1:57    4    3:50    3 5:43:43 31.4      3    3:03    9 2:20:45  6:41 
    5    76 9:32:51 Bryan Hipson           Yarmouth     NS CA   2/2    M4549    9 1:08:26  1:49   20    6:56    5 5:52:32 30.6     16    9:37    6 2:15:22  6:25 
    6    53 9:40:16 Kenneth Mitton         Dieppe       NB CA   2/2    M5054   14 1:15:53  2:00    6    4:00    7 6:04:23 29.6      7    4:54    4 2:11:09  6:13 
    7    37 9:44:18 Stephan Meyer          Gatineau     QC CA   1/3    M3539   10 1:10:19  1:51   27    9:30    8 6:08:36 29.3      9    5:24    3 2:10:31  6:12 
    8    42 9:53:36 Stacy Juckett Chesnutt Dartmouth    NS CA   1/3    F4044   23 1:27:07  2:18   13    5:18    9 6:19:44 28.4      5    4:35    1 1:56:54  5:33 
    9    31 10:07:10 James Lamond           Halifax      NS CA   1/2    M2529   12 1:10:34  1:52   22    7:08   10 6:19:49 28.4     18   10:50    8 2:18:50  6:35 
   10    30 10:17:48 Mason Jeddore          St..Johns    NL CA   1/2    M1824    1   53:20  1:25   16    5:31   15 6:50:29 26.3      4    3:04   12 2:25:25  6:54 
   11    57 10:27:07 Ron Tibert             Lunenburg    NS CA   2/2    M4044   21 1:25:09  2:15   14    5:19    6 5:59:10 30.1     14    7:54   16 2:49:38  8:03 
   12    43 10:27:58 Michelle Zunti         New Glasgow  NS CA   2/3    F4044   17 1:18:42  2:05    2    3:15   14 6:46:28 26.6      2    2:43    7 2:16:52  6:30 
   13    50 10:33:19 Terri Waldron          New Glasgow  NS CA   1/2    F4549   15 1:16:00  2:00   11    5:00   11 6:22:19 28.2     11    6:07   13 2:43:54  7:47 
   14    40 10:35:07 Brigitte Sabourin      Halifax      NS CA   1/1    F3539    8 1:07:19  1:47    5    4:00   17 6:55:40 26.0      8    5:18   10 2:22:52  6:47 
   15    35 11:10:26 Michael French         Halifax      NS CA   1/3    M3034   16 1:16:06  2:01   12    5:03   16 6:50:51 26.3     19   11:30   15 2:46:59  7:55 
   16    64 11:26:09 Chris Swift            Halifax      NS CA   2/3    M3034    3   59:13  1:34   25    8:04   12 6:36:23 27.2     17   10:27   19 3:32:04 10:03 
   17    55 11:30:16 Steve Saunders         Blockhouse   NS CA   1/2    M5559   26 1:39:40  2:38    8    4:28   13 6:45:39 26.6     13    7:16   17 2:53:15  8:13 
   18    32 11:32:17 Kristin Honshorst      Toronto      ON CA   1/1    F2529   11 1:10:30  1:52   21    6:57   20 7:24:06 24.3     12    6:44   14 2:44:03  7:47 
   19    88 12:24:12 Pat Kennedy            Shubenacadie NS CA   2/2    M5559   19 1:20:53  2:08   17    6:24   19 7:09:25 25.2     15    9:19   21 3:38:14 10:21 
   20    70 12:29:56 Tammy Slauenwhite      Rose Bay     NS CA   3/3    F4044   20 1:24:17  2:14   23    7:26   18 7:07:07 25.3     20   15:47   20 3:35:21 10:13 
   21    60 12:57:39 Graham Muise           Milton       NS CA   2/2    M1824    6 1:05:56  1:45    9    4:41   22 8:10:31 22.0     21   16:46   18 3:19:48  9:29 
   22    33         Mike Kennedy           Halifax      NS CA   2/2    M2529   18 1:20:18  2:07   24    7:40   21 8:01:23 22.4                                   
   23    38         Arend Teraa            York         PE CA   2/3    M3539    2   56:26  1:30    7    4:02                                                     
   24    48         Nerina Black           Innisfil     ON CA   2/2    F4549   22 1:26:44  2:17   19    6:48                                                     
   25    52         Cindy Southgate        Kanata       ON CA   1/1    F5054   24 1:29:36  2:22   18    6:28                                                     
   26    39         Brian Stockdale        Eastern Pass NS CA   3/3    M3539   25 1:38:08  2:35   26    8:42                                                     
   27    34         Derek Casper           Clarkston    MI US   3/3    M3034   27 1:49:32  2:53   15    5:22                                                     



                   Subaru Epic Dartmouth(Aqua_Distance)
  Dartmouth, Nova Scotia, July 1st, 2012 Weather: Sunny 25 to 30 Degrees
              Timing & Results by Atlantic Chip Event Timing
 
                           Age Group Competition

------------------------------------------------------------------------        3800 M                           180 Km      
                                                            Div            ------SWIM-------   ----T1----  ------BIKE--------
Place   bib  Time   Name              City         Pr Co    Total  Div     Pl   Time   /100M    Pl  Time     Pl Time    Km/Hr
------  --- ------- --------------    ------------ -- --    ----- ------   -----------------  -----------  ------------------
    1    18 6:35:19 Darryl Parry           Calgary      AB CA   1/4    M5054    9 1:10:50  1:52   14    6:25    1 5:18:05 34.0   
    2    22 6:35:49 Denis Leblanc          Cocagne      NB CA   1/2    M3539    4 1:08:28  1:49    1    2:26    2 5:24:55 33.2   
    3    65 6:44:39 Boon Kek               Saint John   NB CA   1/1    M3034    7 1:09:38  1:50    3    3:42    3 5:31:20 32.6   
    4    41 6:50:42 Suzanne Ferrier        Halifax      NS CA   1/4    F4044    8 1:10:12  1:51    2    3:32    4 5:37:00 32.0   
    5    51 7:02:56 Dave Clark             Summerside   PE CA   2/4    M5054    3 1:08:19  1:48    8    4:58    5 5:49:39 30.9   
    6    44 7:08:36 Richard Leckey         Halifax      NS CA   1/4    M4044   10 1:10:51  1:52    6    4:26    7 5:53:20 30.6   
    7    79 7:08:51 Scott Clark            Summerside   PE CA   1/5    M4549   11 1:12:03  1:54    4    3:55    6 5:52:54 30.6   
    8    45 7:16:12 Micheline McWhirter    Halifax      NS CA   2/4    F4044    5 1:08:29  1:49    5    4:23    9 6:03:20 29.7   
    9    14 7:32:33 Neil Wood              Kincardine   ON CA   2/4    M4044   22 1:27:11  2:18    7    4:52    8 6:00:31 30.0   
   10    10 7:50:11 Edie Baxter            Halifax      NS CA   1/1    F3539   15 1:15:59  2:00   13    5:53   10 6:28:19 27.8   
   11    13 8:00:25 Kevin Johnson          Bridgewater  NS CA   3/4    M4044    1 1:06:04  1:45   15    6:39   12 6:47:43 26.5   
   12    19 8:00:29 Karen Beazley          Halifax      NS CA   1/1    F5054   13 1:13:50  1:57   19    7:32   11 6:39:08 27.1   
   13    36 8:21:08 Shane Hawkins          Kingston     ON CA   2/2    M3539    2 1:08:16  1:48   10    5:23   15 7:07:29 25.3   
   14    12 8:32:08 Trevor Lowe            Clarke's Bea NL CA   4/4    M4044   18 1:23:12  2:12   16    7:04   13 7:01:53 25.6   
   15    84 8:39:01 Gary Simmonds          Morell       PE CA   3/4    M5054   19 1:24:25  2:14   21    8:05   14 7:06:32 25.3   
   16    86 8:58:11 Peter McCormick        Bedford      NS CA   4/4    M5054   12 1:12:50  1:55   20    7:54   16 7:37:28 23.6   
   17    11 9:02:54 Marianna Koljubakin    Churchill    ON CA   3/4    F4044    6 1:08:49  1:49   18    7:12   18 7:46:53 23.1   
   18    21 9:03:11 Walter Strapps         Whites Lake  NS CA   1/1    M6599   14 1:15:24  2:00   11    5:47   17 7:42:01 23.4   
   19    16 9:22:23 Jorge Gomez            Churchill    ON CA   2/5    M4549   20 1:24:52  2:14   23   10:15   19 7:47:16 23.1   
   20    17 9:24:36 John Leahy             Dartmouth    NS CA   3/5    M4549   17 1:20:30  2:08   17    7:09   20 7:56:58 22.6   
   21    47 9:29:14 Ron Macdougall         Halifax      NS CA   4/5    M4549   16 1:17:28  2:03    9    5:02   21 8:06:45 22.2   
   22    81 9:52:14 Mike Southgate         Kanata       ON CA   5/5    M4549   21 1:26:40  2:17   22    9:30   22 8:16:04 21.8   
   23    15 10:15:39 Lara Kaplan            Hammonds Pla NS CA   4/4    F4044   24 1:53:06  2:59   12    5:53   23 8:16:41 21.7   
   24    20         Mike De Wolf           Bedford      NS CA   1/1    M6064   23 1:30:06  2:23   24   10:54                     

                 Subaru Epic Dartmouth(Epic_Team_Results)
  Dartmouth, Nova Scotia, July 1st, 2012 Weather: Sunny 25 to 30 Degrees
              Timing & Results by Atlantic Chip Event Timing
 
                           Team Relay Results
---------------------------------------------------------------------------------         3800 Meter                      180 Km                            21.1 Km
             Total                                                                    ------SWIM------   ----T1----   ------BIKE-------    -----T2----  ------RUN--------
Place   bib  Time   Team Name       Swimmer         Biker           Runner            Pl   Time   /100   Pl    Time   Pl Time     Km/Hr    Pl    Time   Pl Time     /Km
------  --- ------- --------------  ------------    -------------   -------------     -----------------  -----------  -----------------    -----------  -----------------
    1   212 7:55:56 The Young Bucks Todd Mcdonald   Curtis Gregoire David Keefe        6 1:08:02  1:48    7    0:31    2 5:06:06 35.3      1    0:15    2 1:40:16  4:46 
    2   202 8:13:36 The Old Farts   Doran Donovan   Chad Robertson  Doran Donovan      7 1:10:36  1:52    2    0:25    1 5:03:46 35.6      2    0:16    8 1:58:06  5:36 
    3   207 8:29:36 Health Canada   Tim Houtsma     Patrick Small L Wade Were          2   56:18  1:29   12    0:46    4 5:56:57 30.3      9    0:27    1 1:34:37  4:30 
    4   205 8:38:04 Vitesse         Kelley Polley   John Gillis     Laura  Keefe       5 1:06:43  1:46    6    0:30    3 5:42:38 31.5      8    0:27    4 1:47:11  5:05 
    5   201 9:11:31 MEC             Jennifer Green  Jeff Townley    Andrew Myatt       4 1:03:29  1:41    4    0:25    8 6:18:45 28.5      6    0:24    5 1:48:00  5:08 
    6   208 9:17:08 The Dalton Gang Ricky Dalton    Paul Dalton     Paulette Dalton    9 1:20:14  2:07    5    0:30    5 6:01:01 29.9      3    0:18    7 1:54:33  5:26 
    7   213 9:26:52 Team Jeremy     Emily Morton    Marie-Claude Gr Marie-Claude Gr    3 1:00:24  1:36    1    0:24    6 6:06:00 29.5     13    3:16   11 2:16:13  6:28 
    8   203 9:35:31 Capyargylers    Laurie D'entrem Fenton Cunningh Gayland Goodwin   12 1:26:36  2:17   11    0:46    7 6:15:49 28.7      7    0:26    6 1:51:07  5:16 
    9   211 9:53:20 Sisu            Paula Yliheikki Stuart Richards David Kachan      10 1:22:29  2:11   13    0:49   11 6:47:10 26.5     12    0:39    3 1:41:26  4:49 
   10   204 9:53:38 Just Finish     Colin Sonnichse Heather Ross    Elizabeth Halle    1   55:49  1:29    3    0:25   10 6:39:48 27.0      5    0:20   12 2:16:50  6:30 
   11   210 9:54:33 Team Pacey      Aarika  Dalton  Stoan Pacey     Sondra Pacey       8 1:14:13  1:58   10    0:37    9 6:25:46 28.0      4    0:19   10 2:12:58  6:19 
   12   209 10:40:35 Just Keep Movin Christine Gough Bob Gough       Scott Mason       13 1:38:20  2:36    9    0:35   12 7:00:55 25.7     11    0:33    9 1:59:31  5:40 
   13   206 12:44:57 LMK First Timer Lorraine Clayto Michael Smith   Kathryn Wilson    11 1:24:56  2:15    8    0:35   13 8:28:32 21.2     10    0:30   13 2:49:43  8:03 



Results originally posted June 30th, 2012 at 10:59:24 am	
Results last revised July 6th, 2012 at 9:06:34 pm
Atlantic Chip Sport Timing
32 Forest Road
Dartmouth, NS
B3A 2M3
Email: Troy Musseau	
Copyright © 2016 Atlantic Chip Sport Timing
ChampionChip® and MYLAPS® name and logo copyright © MYLAPS	Current server time is 03:19:46 PM Atlantic Time
Page generated in 0.047 seconds